Time;durP1;ratioP1;P1;durP2;ratioP2;P2;SDS_P1;SDS_P2;PMS_P1;PMS_P2;Temp;Humidity;BMP_temperature;BMP_pressure;BME280_temperature;BME280_humidity;BME280_pressure;Samples;Min_cycle;Max_cycle;Signal;HPM_P1;HPM_P2
2023/04/03 00:00:26;;;;;;;9.50;6.32;;;;;;;14.99;44.11;99057.72;4997657;28;20064;-70
2023/04/03 00:02:52;;;;;;;12.70;5.85;;;;;;;14.88;44.03;99063.63;4997549;28;20045;-71
2023/04/03 00:05:18;;;;;;;12.55;6.00;;;;;;;14.83;44.23;99060.75;5014425;28;20480;-71
2023/04/03 00:07:44;;;;;;;11.80;6.40;;;;;;;14.80;44.29;99063.00;5001968;28;20451;-70
2023/04/03 00:10:10;;;;;;;10.25;5.90;;;;;;;14.88;44.32;99071.66;5017946;28;20057;-71
2023/04/03 00:12:35;;;;;;;13.93;6.43;;;;;;;14.76;44.28;99080.47;5001464;28;20052;-71
2023/04/03 00:15:01;;;;;;;12.38;6.30;;;;;;;14.70;44.51;99071.38;5001497;28;20057;-70
2023/04/03 00:17:28;;;;;;;11.15;6.03;;;;;;;14.67;44.78;99063.75;5001748;28;20069;-70
2023/04/03 00:19:54;;;;;;;13.63;6.15;;;;;;;14.71;44.23;99074.88;5018120;28;20509;-71
2023/04/03 00:22:20;;;;;;;15.60;5.90;;;;;;;14.70;44.39;99070.53;5001358;28;20391;-70
2023/04/03 00:24:46;;;;;;;13.80;6.07;;;;;;;14.70;44.26;99071.38;5018054;28;20379;-70
2023/04/03 00:27:12;;;;;;;11.10;5.60;;;;;;;14.62;44.31;99066.19;5001426;28;20495;-70
2023/04/03 00:29:37;;;;;;;10.23;5.32;;;;;;;14.61;44.42;99066.38;5001146;28;20045;-70
2023/04/03 00:32:03;;;;;;;8.18;4.95;;;;;;;14.68;44.22;99062.72;5017542;28;20490;-71
2023/04/03 00:34:29;;;;;;;11.20;5.10;;;;;;;14.71;44.04;99064.19;5001124;28;20057;-70
2023/04/03 00:36:55;;;;;;;9.25;5.50;;;;;;;14.70;44.04;99068.69;5001272;28;20064;-70
2023/04/03 00:39:21;;;;;;;11.50;5.38;;;;;;;14.67;44.16;99069.09;5000987;28;20376;-71
2023/04/03 00:41:47;;;;;;;12.60;6.00;;;;;;;14.67;43.87;99062.91;4968819;28;20060;-70
2023/04/03 00:44:41;;;;;;;10.57;6.07;;;;;;;15.31;43.91;99071.41;5017201;28;20045;-70
2023/04/03 00:47:11;;;;;;;8.70;5.22;;;;;;;14.98;44.25;99063.25;5033524;28;20042;-70
2023/04/03 00:49:38;;;;;;;11.30;5.72;;;;;;;15.00;44.23;99069.25;5000895;28;20049;-71
2023/04/03 00:52:06;;;;;;;10.55;6.45;;;;;;;14.97;44.42;99066.97;4984696;28;20140;-70
2023/04/03 00:54:32;;;;;;;9.23;5.40;;;;;;;14.87;44.11;99062.00;5000912;28;20388;-71
2023/04/03 00:56:58;;;;;;;12.65;5.93;;;;;;;14.82;43.80;99072.44;5000690;28;20388;-71
2023/04/03 00:59:27;;;;;;;13.13;5.15;;;;;;;15.24;44.03;99063.34;5000461;28;20057;-71
2023/04/03 01:01:56;;;;;;;12.23;6.43;;;;;;;15.19;43.85;99066.63;4984202;28;20468;-70
2023/04/03 01:04:49;;;;;;;14.68;5.90;;;;;;;15.48;43.38;99068.19;5000467;28;20450;-70
2023/04/03 01:07:19;;;;;;;16.98;6.22;;;;;;;15.35;43.50;99061.94;4980820;28;20353;-70
2023/04/03 01:09:47;;;;;;;12.15;6.50;;;;;;;15.22;43.55;99068.09;5000620;28;20044;-70
2023/04/03 01:12:22;;;;;;;14.95;6.43;;;;;;;15.47;43.50;99066.53;5000206;28;20049;-73
2023/04/03 01:14:55;;;;;;;11.30;5.88;;;;;;;15.19;43.57;99057.81;5016721;28;20052;-72
2023/04/03 01:17:27;;;;;;;13.65;6.88;;;;;;;15.16;43.41;99039.47;4999038;28;20119;-72
2023/04/03 01:20:12;;;;;;;12.07;6.50;;;;;;;15.43;43.28;99069.81;5000251;28;20156;-71
2023/04/03 01:23:03;;;;;;;13.10;7.13;;;;;;;15.31;43.55;99056.19;5000098;28;20053;-72
2023/04/03 01:25:29;;;;;;;11.18;6.47;;;;;;;14.84;43.58;99062.41;4999928;28;20159;-69
2023/04/03 01:27:56;;;;;;;10.73;6.22;;;;;;;14.75;43.51;99070.78;5016860;28;20545;-73
2023/04/03 01:30:28;;;;;;;16.77;6.93;;;;;;;15.06;43.79;99060.41;4995507;28;20053;-74
2023/04/03 01:32:54;;;;;;;11.50;6.30;;;;;;;14.62;43.32;99066.19;4979504;28;20484;-73
2023/04/03 01:35:20;;;;;;;14.70;6.50;;;;;;;14.68;43.45;99067.25;4995784;28;20050;-73
2023/04/03 01:37:46;;;;;;;13.68;6.40;;;;;;;14.60;43.77;99057.56;4979521;28;20058;-72
2023/04/03 01:40:11;;;;;;;14.77;6.53;;;;;;;14.65;43.58;99060.44;4979051;28;20077;-73
2023/04/03 01:42:38;;;;;;;9.13;5.68;;;;;;;14.59;43.50;99058.56;4979167;28;20488;-71
2023/04/03 01:45:05;;;;;;;12.27;6.53;;;;;;;14.80;43.32;99054.97;4978871;28;20080;-71
2023/04/03 01:47:30;;;;;;;17.45;7.20;;;;;;;14.83;43.21;99062.59;4978998;28;20049;-71
2023/04/03 01:49:56;;;;;;;16.75;6.70;;;;;;;14.88;43.20;99057.47;5011634;28;20065;-71
2023/04/03 01:52:22;;;;;;;11.20;6.72;;;;;;;14.91;43.10;99059.75;4979084;28;20042;-73
2023/04/03 01:54:50;;;;;;;10.45;6.38;;;;;;;14.91;42.99;99065.91;4995498;28;20076;-71
2023/04/03 01:57:16;;;;;;;14.52;7.75;;;;;;;15.00;42.81;99061.22;4978873;28;20046;-72
2023/04/03 01:59:43;;;;;;;12.80;6.65;;;;;;;15.06;42.81;99066.59;5011483;28;20095;-71
2023/04/03 02:02:09;;;;;;;12.02;6.38;;;;;;;14.96;42.98;99060.00;4996059;28;20459;-70
2023/04/03 02:04:35;;;;;;;10.88;6.32;;;;;;;14.81;43.01;99061.97;4999478;28;20045;-73
2023/04/03 02:07:01;;;;;;;11.65;6.32;;;;;;;14.82;43.26;99061.75;4999206;28;20067;-70
2023/04/03 02:09:27;;;;;;;14.60;6.82;;;;;;;14.73;43.21;99065.63;4999671;28;20065;-70
2023/04/03 02:11:53;;;;;;;16.75;7.40;;;;;;;14.76;43.58;99069.78;4999619;28;20353;-74
2023/04/03 02:14:20;;;;;;;15.18;8.18;;;;;;;14.76;43.60;99069.78;4999415;28;20048;-70
2023/04/03 02:17:08;;;;;;;18.67;7.43;;;;;;;14.65;43.59;99071.13;5004910;28;20424;-70
2023/04/03 02:19:35;;;;;;;15.75;7.22;;;;;;;14.82;43.87;99066.31;5015894;28;20432;-69
2023/04/03 02:22:03;;;;;;;9.70;6.45;;;;;;;14.77;43.88;99061.56;5015682;28;20037;-70
2023/04/03 02:24:29;;;;;;;13.23;7.60;;;;;;;14.63;44.06;99070.53;5015331;28;20088;-70
2023/04/03 02:26:55;;;;;;;20.15;7.78;;;;;;;14.58;44.04;99066.78;5015244;28;20183;-71
2023/04/03 02:29:21;;;;;;;20.65;10.77;;;;;;;14.56;44.25;99063.50;4998957;28;20160;-71
2023/04/03 02:31:47;;;;;;;29.65;11.43;;;;;;;14.62;44.21;99070.72;4998970;28;20048;-70
2023/04/03 02:34:14;;;;;;;32.42;13.50;;;;;;;14.62;44.06;99066.19;4999198;28;20139;-69
2023/04/03 02:36:41;;;;;;;30.35;14.10;;;;;;;14.64;43.96;99060.63;4998640;28;20529;-70
2023/04/03 02:39:09;;;;;;;45.30;15.95;;;;;;;14.66;44.02;99075.47;4999159;28;20061;-70
2023/04/03 02:41:35;;;;;;;52.40;20.42;;;;;;;14.62;44.04;99066.19;4998760;28;20041;-70
2023/04/03 02:44:04;;;;;;;53.60;22.23;;;;;;;14.87;44.01;99077.19;4999238;28;20045;-70
2023/04/03 02:46:31;;;;;;;51.85;22.73;;;;;;;14.66;44.02;99074.63;4998754;28;20056;-70
2023/04/03 02:48:57;;;;;;;51.00;19.52;;;;;;;14.60;44.15;99065.56;4998443;28;20041;-70
2023/04/03 02:51:23;;;;;;;52.92;17.90;;;;;;;14.76;44.02;99077.78;4982574;28;20041;-70
2023/04/03 02:53:49;;;;;;;38.80;16.00;;;;;;;14.79;44.13;99077.38;4998408;28;20041;-70
2023/04/03 02:56:20;;;;;;;;;;;;;;;15.39;43.31;99088.13;4999529;28;20053;-70
2023/04/03 02:58:46;;;;;;;46.67;19.65;;;;;;;14.67;43.92;99086.97;4998450;28;19949;-71
2023/04/03 03:01:12;;;;;;;49.50;20.85;;;;;;;14.59;44.05;99081.81;4998220;28;20483;-71
2023/04/03 03:03:39;;;;;;;35.72;14.75;;;;;;;14.53;44.13;99078.06;4998520;28;20049;-70
2023/04/03 03:06:16;;;;;;;32.88;13.00;;;;;;;15.13;43.97;99077.31;4982010;28;20048;-72
2023/04/03 03:08:42;;;;;;;28.95;11.73;;;;;;;14.80;44.08;99081.72;4998021;28;20525;-72
2023/04/03 03:11:08;;;;;;;30.13;12.32;;;;;;;14.60;44.04;99080.78;4998078;28;20045;-71
2023/04/03 03:13:34;;;;;;;16.02;8.73;;;;;;;14.68;44.01;99083.28;4998175;28;20045;-71
2023/04/03 03:16:00;;;;;;;20.45;8.75;;;;;;;14.59;43.77;99079.94;4997695;28;20060;-73
2023/04/03 03:18:26;;;;;;;17.52;8.65;;;;;;;14.66;44.42;99075.47;4998261;28;20049;-74
2023/04/03 03:20:55;;;;;;;21.33;9.13;;;;;;;14.64;44.21;99082.00;5477412;22;20043;31
2023/04/03 03:23:32;;;;;;;17.45;9.50;;;;;;;15.21;44.34;99071.78;5027903;28;20053;-71
2023/04/03 03:26:08;;;;;;;29.80;11.40;;;;;;;15.05;44.28;99078.31;5013640;28;20056;-69
2023/04/03 03:28:36;;;;;;;37.55;15.20;;;;;;;15.01;44.25;99082.41;5014603;28;20100;-70
2023/04/03 03:31:05;;;;;;;47.92;20.55;;;;;;;15.00;43.94;99086.13;4982939;28;20064;-69
2023/04/03 03:33:34;;;;;;;42.92;15.57;;;;;;;14.69;43.98;99092.94;4982171;28;20045;-69
2023/04/03 03:36:01;;;;;;;36.38;14.38;;;;;;;14.68;44.14;99089.44;4998459;28;20056;-70
2023/04/03 03:38:28;;;;;;;27.73;12.70;;;;;;;14.49;44.85;99092.84;4998384;28;20360;-70
2023/04/03 03:40:54;;;;;;;28.05;14.00;;;;;;;14.53;44.51;99090.59;4997752;28;20132;-70
2023/04/03 03:43:21;;;;;;;34.60;14.85;;;;;;;14.61;44.30;99091.25;5015072;28;20056;-78
2023/04/03 03:45:52;;;;;;;36.97;14.98;;;;;;;14.96;44.21;99092.88;5014762;28;20091;-76
2023/04/03 03:48:19;;;;;;;44.45;17.00;;;;;;;14.87;44.00;99082.53;4998489;28;20049;-75
2023/04/03 03:50:48;;;;;;;41.33;15.05;;;;;;;14.81;44.36;99097.53;4998892;28;20072;-75
2023/04/03 03:53:14;;;;;;;27.73;14.10;;;;;;;14.78;44.11;99094.44;4998080;28;20391;-75
2023/04/03 03:55:41;;;;;;;22.67;10.45;;;;;;;14.82;44.15;99085.00;4998080;28;20144;-74
2023/04/03 03:58:08;;;;;;;23.98;10.10;;;;;;;14.83;43.98;99087.50;4998429;28;20045;-74
2023/04/03 04:00:35;;;;;;;21.70;9.02;;;;;;;14.82;43.87;99093.03;5013526;28;20161;-75
2023/04/03 04:03:01;;;;;;;24.20;9.18;;;;;;;14.74;43.92;99088.69;4980749;28;20041;-76
2023/04/03 04:05:30;;;;;;;19.00;9.13;;;;;;;14.78;43.90;99087.25;5013645;28;20566;-75
2023/04/03 04:07:57;;;;;;;27.25;9.13;;;;;;;14.58;43.96;99088.16;4997015;28;20045;-75
2023/04/03 04:10:24;;;;;;;19.75;8.27;;;;;;;14.39;44.65;99091.53;5013484;28;20066;-76
2023/04/03 04:12:51;;;;;;;21.98;9.85;;;;;;;14.24;45.22;99088.13;4997160;28;20048;-75
2023/04/03 04:15:22;;;;;;;21.98;9.27;;;;;;;14.89;45.05;99092.03;4981343;28;20368;-74
2023/04/03 04:17:49;;;;;;;24.63;9.82;;;;;;;14.40;44.90;99093.19;4997376;28;20065;-75
2023/04/03 04:20:18;;;;;;;24.27;11.05;;;;;;;14.77;44.96;99095.47;4980785;28;20118;-77
2023/04/03 04:22:43;;;;;;;27.45;10.50;;;;;;;14.43;44.75;99090.13;5012853;28;20573;-75
2023/04/03 04:25:10;;;;;;;24.55;10.85;;;;;;;14.28;45.20;99090.25;4980821;28;20526;-75
2023/04/03 04:27:38;;;;;;;33.13;11.60;;;;;;;14.51;45.02;99092.66;4981362;28;20046;-76
2023/04/03 04:30:10;;;;;;;33.58;11.57;;;;;;;15.08;44.45;99087.81;4980736;28;20045;-77
2023/04/03 04:32:37;;;;;;;33.63;13.13;;;;;;;14.60;44.44;99100.31;4998146;28;20057;-76
2023/04/03 04:35:05;;;;;;;29.70;12.05;;;;;;;14.61;44.51;99101.97;4981576;28;20077;-75
2023/04/03 04:37:33;;;;;;;35.63;12.38;;;;;;;14.74;44.03;99106.56;4998349;28;20041;-78
2023/04/03 04:40:00;;;;;;;25.77;10.82;;;;;;;14.85;44.33;99101.47;4997818;28;20049;-77
2023/04/03 04:42:26;;;;;;;31.48;12.18;;;;;;;14.90;43.49;99108.88;5014015;28;20091;-78
2023/04/03 04:44:52;;;;;;;34.75;11.98;;;;;;;15.00;43.10;99115.53;4981729;28;20068;-75
2023/04/03 04:47:18;;;;;;;30.85;10.80;;;;;;;15.07;43.07;99110.19;5013835;28;20041;-76
2023/04/03 04:49:45;;;;;;;39.95;12.13;;;;;;;15.13;43.03;99114.75;4992397;28;20977;-71
2023/04/03 04:52:11;;;;;;;30.42;11.93;;;;;;;15.25;42.79;99107.81;4980059;28;20045;-70
2023/04/03 04:55:07;;;;;;;43.75;11.65;;;;;;;16.07;42.35;99121.81;5016421;28;20513;-83
2023/04/03 04:57:59;;;;;;;48.55;12.57;;;;;;;15.48;42.41;99119.06;4976821;28;20068;-70
2023/04/03 05:00:25;;;;;;;25.05;11.18;;;;;;;15.51;42.05;99118.66;5009313;28;20045;-70
2023/04/03 05:02:51;;;;;;;26.52;11.13;;;;;;;15.57;41.97;99114.31;4982438;28;20037;-71
2023/04/03 05:05:19;;;;;;;34.00;11.25;;;;;;;15.51;41.90;99113.28;4995812;28;20029;-72
2023/04/03 05:07:45;;;;;;;28.23;10.18;;;;;;;15.67;41.88;99112.09;4998458;28;20099;-71
2023/04/03 05:10:11;;;;;;;22.58;9.85;;;;;;;15.70;41.68;99117.84;5006714;28;20458;-71
2023/04/03 05:12:38;;;;;;;29.23;10.77;;;;;;;15.76;41.44;99114.34;5014576;28;20045;-71
2023/04/03 05:15:05;;;;;;;28.63;10.13;;;;;;;15.91;41.76;99108.81;4998319;28;20045;-73
2023/04/03 05:17:32;;;;;;;31.33;10.90;;;;;;;15.84;41.38;99118.69;5022431;28;20148;-74
2023/04/03 05:19:58;;;;;;;22.40;9.45;;;;;;;15.89;41.26;99116.22;4982100;28;20037;-74
2023/04/03 05:22:29;;;;;;;27.15;11.85;;;;;;;15.70;41.75;99122.41;4983364;28;20079;-73
2023/04/03 05:25:01;;;;;;;26.05;9.68;;;;;;;15.61;41.75;99124.41;4999732;28;20045;-71
2023/04/03 05:27:29;;;;;;;18.80;8.43;;;;;;;15.59;41.90;99118.44;4998432;28;20048;-75
2023/04/03 05:29:59;;;;;;;28.75;10.13;;;;;;;16.13;42.07;99121.81;5055615;28;20041;-72
2023/04/03 05:32:27;;;;;;;29.00;10.18;;;;;;;15.75;41.77;99118.06;4998246;28;20029;-71
2023/04/03 05:35:05;;;;;;;21.58;9.93;;;;;;;16.02;41.94;99126.97;5000378;28;20288;-74
2023/04/03 05:37:34;;;;;;;27.40;9.20;;;;;;;15.66;41.58;99131.84;4980754;28;20053;-74
2023/04/03 05:40:00;;;;;;;23.73;9.57;;;;;;;15.73;42.08;99133.50;5006504;28;20473;-73
2023/04/03 05:42:29;;;;;;;27.55;10.50;;;;;;;15.59;41.90;99131.03;4989316;28;20887;-71
2023/04/03 05:44:55;;;;;;;27.17;10.52;;;;;;;15.38;42.65;99137.31;5022927;28;20045;-71
2023/04/03 05:47:22;;;;;;;31.38;10.52;;;;;;;15.30;42.68;99132.09;4980833;28;20045;-72
2023/04/03 05:49:48;;;;;;;29.05;9.05;;;;;;;15.45;42.30;99143.53;4981617;28;20069;-73
2023/04/03 05:52:35;;;;;;;22.77;9.55;;;;;;;16.21;41.91;99140.38;4982019;28;20033;-72
2023/04/03 05:55:03;;;;;;;27.52;9.00;;;;;;;16.05;41.79;99132.72;4980561;28;20041;-74
2023/04/03 05:57:32;;;;;;;30.33;9.73;;;;;;;16.07;41.24;99141.38;4995132;28;20037;-71
2023/04/03 05:59:58;;;;;;;25.67;8.50;;;;;;;16.19;40.86;99146.97;4981401;28;20038;-71
2023/04/03 06:02:25;;;;;;;21.17;8.73;;;;;;;16.46;40.83;99144.13;5005876;28;20075;-74
2023/04/03 06:04:52;;;;;;;25.95;8.98;;;;;;;16.73;40.27;99139.53;4989573;28;20041;-74
2023/04/03 06:07:22;;;;;;;27.48;8.88;;;;;;;17.18;39.95;99140.44;4999977;28;20079;-75
2023/04/03 06:09:51;;;;;;;26.75;9.23;;;;;;;17.32;39.38;99147.41;4981367;28;20467;-75
2023/04/03 06:12:17;;;;;;;27.42;9.27;;;;;;;17.33;39.19;99141.00;4995565;28;20505;-74
2023/04/03 06:14:43;;;;;;;23.75;9.50;;;;;;;17.43;38.75;99154.78;4979950;28;20479;-74
2023/04/03 06:17:12;;;;;;;22.23;8.80;;;;;;;17.63;38.36;99155.56;4979189;28;20066;-74
2023/04/03 06:19:37;;;;;;;21.95;8.00;;;;;;;17.88;37.99;99151.09;4980240;28;20068;-74
2023/04/03 06:22:04;;;;;;;23.40;8.82;;;;;;;17.98;37.51;99148.72;5012436;28;20397;-76
2023/04/03 06:24:30;;;;;;;23.40;9.38;;;;;;;18.29;37.01;99159.47;5009611;28;20053;-76
2023/04/03 06:26:57;;;;;;;32.13;8.98;;;;;;;18.33;36.63;99147.22;5009578;28;20037;-73
2023/04/03 06:29:22;;;;;;;30.15;9.05;;;;;;;18.60;36.29;99155.94;5023158;28;20044;-74
2023/04/03 06:31:50;;;;;;;19.60;9.80;;;;;;;19.01;35.58;99158.81;4995738;28;20356;-74
2023/04/03 06:34:16;;;;;;;29.90;9.95;;;;;;;19.17;35.31;99163.63;4975233;28;20157;-74
2023/04/03 06:36:42;;;;;;;23.30;9.35;;;;;;;19.16;35.06;99160.09;4948778;28;20124;-75
2023/04/03 06:39:12;;;;;;;23.92;8.40;;;;;;;19.74;34.68;99155.06;4959797;28;20499;-76
2023/04/03 06:41:38;;;;;;;26.75;9.93;;;;;;;19.67;34.04;99165.09;4991683;28;20080;-75
2023/04/03 06:44:04;;;;;;;24.10;10.23;;;;;;;19.99;33.60;99151.16;4973445;28;20050;-74
2023/04/03 06:46:30;;;;;;;26.95;10.10;;;;;;;20.18;33.28;99161.91;4959947;28;20049;-76
2023/04/03 06:48:56;;;;;;;21.73;9.65;;;;;;;20.39;33.18;99170.28;4960346;28;20546;-74
2023/04/03 06:51:24;;;;;;;29.88;10.38;;;;;;;20.98;32.61;99167.41;4960439;28;20076;-77
2023/04/03 06:53:52;;;;;;;39.15;10.00;;;;;;;21.01;32.27;99166.09;4960567;28;20050;-75
2023/04/03 06:56:18;;;;;;;21.35;9.25;;;;;;;21.06;32.02;99167.06;4976212;28;20204;-74
2023/04/03 06:58:44;;;;;;;27.13;9.63;;;;;;;21.15;31.59;99162.09;4976489;28;20054;-76
2023/04/03 07:01:12;;;;;;;27.30;9.43;;;;;;;21.67;31.38;99163.72;4976322;28;20038;-74
2023/04/03 07:03:38;;;;;;;26.02;11.40;;;;;;;21.86;31.02;99159.00;4960649;28;20050;-76
2023/04/03 07:06:06;;;;;;;32.78;11.48;;;;;;;22.08;30.42;99163.44;4959743;28;20539;-75
2023/04/03 07:08:33;;;;;;;33.05;10.77;;;;;;;22.41;30.09;99158.09;4976530;28;20042;-74
2023/04/03 07:10:59;;;;;;;35.78;10.80;;;;;;;22.51;29.43;99169.09;4982184;28;20045;-77
2023/04/03 07:13:26;;;;;;;26.88;9.27;;;;;;;22.77;29.42;99165.72;5012886;28;20447;-79
2023/04/03 07:15:52;;;;;;;23.27;8.68;;;;;;;22.74;29.12;99158.09;5030087;28;20102;-77
2023/04/03 07:18:19;;;;;;;22.70;9.13;;;;;;;23.16;28.84;99156.56;5012525;28;20482;-77
2023/04/03 07:20:45;;;;;;;33.13;9.40;;;;;;;23.11;28.39;99158.38;5013798;28;20045;-77
2023/04/03 07:23:11;;;;;;;21.98;9.15;;;;;;;23.27;28.25;99158.38;4997141;28;20079;-77
2023/04/03 07:25:42;;;;;;;23.35;9.05;;;;;;;23.89;28.35;99161.56;5013581;28;20073;-78
2023/04/03 07:28:08;;;;;;;35.15;10.02;;;;;;;23.77;27.66;99162.75;5013512;28;20467;-77
2023/04/03 07:30:34;;;;;;;33.30;9.93;;;;;;;23.86;27.15;99162.06;5014616;28;20063;-77
2023/04/03 07:33:00;;;;;;;30.63;10.93;;;;;;;23.72;27.71;99162.69;5014161;28;20525;-76
2023/04/03 07:35:27;;;;;;;33.13;10.75;;;;;;;23.69;27.67;99160.50;4981639;28;20443;-76
2023/04/03 07:37:53;;;;;;;33.15;11.68;;;;;;;23.49;27.87;99163.78;5014181;28;20037;-76
2023/04/03 07:40:18;;;;;;;31.35;11.63;;;;;;;23.22;28.13;99171.81;5013761;28;20573;-75
2023/04/03 07:42:47;;;;;;;36.53;12.10;;;;;;;22.98;28.45;99164.16;5028914;28;20065;-77
2023/04/03 07:45:13;;;;;;;38.33;12.68;;;;;;;22.76;28.73;99166.81;4995235;28;20479;-77
2023/04/03 07:47:39;;;;;;;28.77;11.60;;;;;;;22.54;29.02;99163.19;5002823;28;20107;-75
2023/04/03 07:50:05;;;;;;;35.75;11.65;;;;;;;22.62;29.25;99160.09;4962404;28;20425;-78
2023/04/03 07:52:31;;;;;;;25.33;10.07;;;;;;;22.21;29.71;99149.63;4980501;28;20053;-77
2023/04/03 07:54:56;;;;;;;33.40;10.23;;;;;;;22.18;29.68;99166.34;4979903;28;20044;-73
2023/04/03 07:57:25;;;;;;;35.35;11.90;;;;;;;21.96;30.05;99170.00;4964816;28;20057;-76
2023/04/03 07:59:53;;;;;;;32.00;10.82;;;;;;;22.26;30.28;99151.59;4996324;28;20041;-76
2023/04/03 08:02:19;;;;;;;38.50;10.55;;;;;;;21.87;30.28;99161.44;4964523;28;20506;-77
2023/04/03 08:04:45;;;;;;;28.42;10.23;;;;;;;21.88;30.51;99154.97;4980029;28;20049;-78
2023/04/03 08:07:11;;;;;;;24.80;11.05;;;;;;;21.89;30.67;99164.75;4963680;28;20037;-78
2023/04/03 08:09:36;;;;;;;31.00;11.73;;;;;;;21.87;30.66;99166.03;4964123;28;20045;-77
2023/04/03 08:12:02;;;;;;;41.30;11.32;;;;;;;22.00;30.50;99163.88;4995567;28;20430;-72
2023/04/03 08:14:31;;;;;;;44.63;11.50;;;;;;;22.37;30.39;99159.63;5011460;28;20533;-76
2023/04/03 08:16:58;;;;;;;33.67;12.32;;;;;;;21.90;30.66;99166.38;5042780;28;20046;-72
2023/04/03 08:19:25;;;;;;;33.83;12.48;;;;;;;22.03;30.85;99166.09;4983859;28;20391;-79
2023/04/03 08:21:51;;;;;;;42.65;12.07;;;;;;;22.00;31.00;99171.16;4983370;28;20058;-76
2023/04/03 08:24:17;;;;;;;31.02;13.05;;;;;;;22.06;30.80;99172.88;4996837;28;20056;-75
2023/04/03 08:26:42;;;;;;;44.45;12.85;;;;;;;22.15;31.07;99177.66;5013978;28;20045;-79
2023/04/03 08:29:08;;;;;;;36.78;13.57;;;;;;;22.13;30.69;99182.50;4984375;28;20049;-79
2023/04/03 08:31:34;;;;;;;39.38;14.23;;;;;;;22.13;30.70;99178.94;4984351;28;20049;-78
2023/04/03 08:33:59;;;;;;;41.05;14.25;;;;;;;22.10;30.53;99180.28;4984288;28;20041;-76
2023/04/03 08:36:27;;;;;;;40.70;14.23;;;;;;;22.39;30.76;99173.75;5016832;28;20041;-74
2023/04/03 08:38:54;;;;;;;43.05;14.43;;;;;;;22.28;30.49;99184.66;5000822;28;20049;-76
2023/04/03 08:41:32;;;;;;;35.30;13.65;;;;;;;22.68;30.32;99186.16;5033034;28;20135;-78
2023/04/03 08:44:35;;;;;;;40.88;13.32;;;;;;;23.01;30.22;99191.56;5000225;28;20045;-74
2023/04/03 08:47:34;;;;;;;33.80;12.65;;;;;;;22.92;30.06;99187.66;5000028;28;20064;-77
2023/04/03 08:50:03;;;;;;;28.42;11.40;;;;;;;22.66;30.18;99180.19;4976152;28;20377;-78
2023/04/03 08:52:31;;;;;;;28.45;12.68;;;;;;;22.26;29.82;99187.59;4976587;28;20108;-77
2023/04/03 08:55:00;;;;;;;28.20;11.40;;;;;;;22.45;30.56;99180.09;4992937;28;20054;-77
2023/04/03 08:57:32;;;;;;;32.75;11.88;;;;;;;22.60;30.63;99183.06;4944691;28;20467;-77
2023/04/03 09:00:04;;;;;;;35.30;12.20;;;;;;;22.51;30.19;99190.75;4976691;28;20054;-76
2023/04/03 09:02:36;;;;;;;34.70;12.02;;;;;;;22.58;30.41;99190.59;4976179;28;20499;-77
2023/04/03 09:05:11;;;;;;;31.38;10.65;;;;;;;21.97;30.93;99182.47;4955757;28;20042;-74
2023/04/03 09:07:42;;;;;;;23.88;9.20;;;;;;;21.86;30.69;99200.38;4975288;28;20080;-78
2023/04/03 09:10:11;;;;;;;25.45;9.50;;;;;;;21.57;30.94;99198.69;5015439;28;20033;-77
2023/04/03 09:12:42;;;;;;;26.45;9.95;;;;;;;21.81;30.75;99199.44;5000066;28;20045;-77
2023/04/03 09:15:24;;;;;;;27.35;8.73;;;;;;;21.80;30.57;99204.03;4999793;28;20401;-77
2023/04/03 09:18:01;;;;;;;23.02;8.60;;;;;;;22.83;29.43;99204.56;4984029;28;20155;-78
2023/04/03 09:20:46;;;;;;;20.23;8.50;;;;;;;23.26;28.82;99208.19;5000148;28;20145;-77
2023/04/03 09:23:34;;;;;;;29.38;9.02;;;;;;;23.41;28.94;99213.03;5016228;28;20053;-78
2023/04/03 09:26:08;;;;;;;29.05;9.27;;;;;;;23.89;28.33;99215.81;4999801;28;20057;-77
2023/04/03 09:28:38;;;;;;;26.42;8.35;;;;;;;24.13;27.82;99211.75;5015915;28;20107;-77
2023/04/03 09:31:38;;;;;;;23.45;8.05;;;;;;;24.58;27.19;99214.91;4983173;28;20052;-76
2023/04/03 09:34:22;;;;;;;25.60;8.97;;;;;;;24.49;26.96;99210.22;4924694;28;20141;-78
2023/04/03 09:36:51;;;;;;;35.75;10.15;;;;;;;24.27;27.12;99213.00;4924770;28;20066;-76
2023/04/03 09:39:20;;;;;;;20.77;9.05;;;;;;;23.91;27.81;99201.97;4939523;28;20050;-77
2023/04/03 09:42:17;;;;;;;30.02;9.98;;;;;;;24.61;26.86;99213.56;4924615;28;20061;-78
2023/04/03 09:45:13;;;;;;;24.88;9.60;;;;;;;24.77;26.97;99210.75;4883545;29;20079;-77
2023/04/03 09:47:41;;;;;;;29.00;10.57;;;;;;;24.87;27.15;99207.28;4897487;29;20043;-76
2023/04/03 09:50:13;;;;;;;25.00;10.70;;;;;;;25.28;26.82;99208.38;4884657;29;20556;-79
2023/04/03 09:52:45;;;;;;;33.22;10.55;;;;;;;25.60;26.40;99214.56;4936846;29;20047;-79
2023/04/03 09:55:28;;;;;;;36.67;11.07;;;;;;;25.75;26.16;99206.47;4983498;28;20060;-75
2023/04/03 09:58:02;;;;;;;27.13;10.15;;;;;;;25.61;26.19;99211.56;4983660;28;20128;-77
2023/04/03 10:00:32;;;;;;;33.85;9.40;;;;;;;25.45;26.49;99218.00;4983441;28;20450;-78
2023/04/03 10:02:58;;;;;;;26.17;9.32;;;;;;;25.36;26.49;99211.44;4982988;28;20045;-78
2023/04/03 10:05:38;;;;;;;32.08;10.00;;;;;;;26.05;25.47;99214.75;5015737;28;20089;-78
2023/04/03 10:08:12;;;;;;;25.00;8.50;;;;;;;26.13;25.02;99211.50;4982964;28;20033;-77
2023/04/03 10:10:40;;;;;;;28.70;8.90;;;;;;;25.76;25.67;99213.53;4998691;28;20537;-78
2023/04/03 10:13:09;;;;;;;27.40;8.43;;;;;;;25.85;25.72;99211.94;5014402;28;20069;-76
2023/04/03 10:15:41;;;;;;;22.92;8.20;;;;;;;25.77;25.77;99215.97;4998695;28;20037;-78
2023/04/03 10:18:35;;;;;;;18.50;8.05;;;;;;;25.65;25.91;99212.66;4982703;28;20042;-79
2023/04/03 10:21:07;;;;;;;19.40;8.48;;;;;;;25.42;26.12;99213.09;5014772;28;20053;-76
2023/04/03 10:23:43;;;;;;;21.30;8.52;;;;;;;25.34;26.31;99208.16;5031875;28;20107;-78
2023/04/03 10:26:32;;;;;;;28.70;9.18;;;;;;;25.44;26.44;99213.66;4982372;28;20045;-77
2023/04/03 10:28:58;;;;;;;26.13;9.35;;;;;;;25.13;26.33;99200.13;5014531;28;20136;-77
2023/04/03 10:31:45;;;;;;;24.67;9.68;;;;;;;25.10;26.22;99206.06;5014457;28;20077;-76
2023/04/03 10:34:29;;;;;;;20.05;9.15;;;;;;;25.59;26.37;99204.75;4982263;28;20180;-77
2023/04/03 10:37:11;;;;;;;28.02;9.57;;;;;;;25.59;26.50;99204.75;4998119;28;20056;-77
2023/04/03 10:39:46;;;;;;;27.38;8.75;;;;;;;25.07;26.54;99209.31;4982240;28;20068;-78
2023/04/03 10:42:28;;;;;;;26.13;9.55;;;;;;;25.50;26.31;99207.16;4998284;28;20080;-78
2023/04/03 10:45:06;;;;;;;20.58;9.82;;;;;;;25.50;26.35;99209.06;4981988;28;20048;-76
2023/04/03 10:47:40;;;;;;;21.20;9.02;;;;;;;25.49;26.44;99207.44;5030844;28;20053;-77
2023/04/03 10:50:26;;;;;;;24.67;8.77;;;;;;;25.73;25.88;99212.16;4981979;28;20141;-78
2023/04/03 10:53:07;;;;;;;33.83;8.57;;;;;;;25.72;26.18;99209.72;4981760;28;20034;-76
2023/04/03 10:55:37;;;;;;;21.52;7.93;;;;;;;25.58;25.96;99205.84;4998255;28;20048;-78
2023/04/03 10:58:05;;;;;;;26.05;7.38;;;;;;;25.10;26.32;99203.34;4982308;28;20041;-75
2023/04/03 11:00:47;;;;;;;24.42;6.57;;;;;;;25.37;26.22;99209.56;4982612;28;20137;-76
2023/04/03 11:03:27;;;;;;;24.35;6.57;;;;;;;25.24;26.13;99210.81;4999745;28;20056;-77
2023/04/03 11:05:53;;;;;;;15.40;5.82;;;;;;;24.91;26.45;99207.59;4984168;28;20045;-77
2023/04/03 11:08:44;;;;;;;13.73;5.82;;;;;;;24.81;25.57;99217.31;4981926;28;20056;-78
2023/04/03 11:11:21;;;;;;;15.02;5.70;;;;;;;24.06;26.86;99210.31;4998589;28;20041;-79
2023/04/03 11:14:15;;;;;;;7.78;5.13;;;;;;;24.12;25.87;99209.28;5001940;28;20033;-79
2023/04/03 11:16:51;;;;;;;12.88;5.63;;;;;;;23.77;26.02;99204.25;4994703;28;20091;-77
2023/04/03 11:19:23;;;;;;;13.65;5.53;;;;;;;23.73;26.45;99205.00;4987535;28;20056;-79
2023/04/03 11:22:33;;;;;;;11.43;5.10;;;;;;;23.32;27.11;99202.84;4987377;28;20045;-80
2023/04/03 11:25:08;;;;;;;12.77;5.47;;;;;;;22.36;28.10;99190.47;4991341;28;20144;-78
2023/04/03 11:27:41;;;;;;;9.63;6.18;;;;;;;22.88;27.59;99210.84;4981333;28;20053;-77
2023/04/03 11:30:17;;;;;;;21.85;6.00;;;;;;;22.57;28.44;99195.19;5047308;28;20486;-80
2023/04/03 11:33:16;;;;;;;16.45;5.82;;;;;;;22.62;28.37;99195.28;4981507;28;20047;-79
2023/04/03 11:35:48;;;;;;;14.35;5.50;;;;;;;22.89;28.19;99195.44;4980335;28;20103;-79